PWSweather.com
Personal Weather Stations
Station Observations
KOHCLEVE171
Cleveland, OH

Cleveland, OH

Lat: 41.48646164, Lon: -81.46408081

Elevation: 1059

Station Type:

Latest ConditionsUpdated 7:53:00 AM EST Friday, Jan 18, 2019
Currently Today's Max Today's Min Today's Average
Temperature 31.6°F-0.2°C 33.4°F0.8°C 31.5°F-0.3°C 32.5°F0.3°C
Dew Point 29.8°F-1.2°C 32.0°F0.0°C 29.8°F-1.2°C 31.0°F-0.6°C
Winds 0.2 mph N0.3 kmh N 4.3 mph -6.9 kmh - - 1.8 mph 2.9 kmh
Wind Gusts 1.6 mph2.6 kmh 9.2 mph14.8 kmh - -
Humidity 93% 95% 93% 94%
Pressure 30.10 in1019.3 mb 30.10 in1019.3 mb 29.98 in1015.2 mb -
Hour Temp Dew Point Humidity Winds Wind Gusts Pressure Precip Precip Rate Daily Precip Total
07:53 AM 31.6°F-0.2°C 29.8°F-1.2°C 93% 0.2 mph N0.3 kmh N 1.6 mph2.6 kmh 30.10 in1019.3 mb 0.00 in0.0 mm 0.00 in0.0 mm 0.00 in0.0 mm
07:48 AM 31.6°F-0.2°C 29.8°F-1.2°C 93% 2.5 mph N4.0 kmh N 3.6 mph5.8 kmh 30.10 in1019.3 mb 0.00 in0.0 mm 0.00 in0.0 mm 0.00 in0.0 mm
07:43 AM 31.6°F-0.2°C 29.8°F-1.2°C 93% 2.0 mph NW3.2 kmh NW 5.1 mph8.2 kmh 30.09 in1019.0 mb 0.00 in0.0 mm 0.00 in0.0 mm 0.00 in0.0 mm
07:38 AM 31.6°F-0.2°C 30.2°F-1.0°C 94% 1.6 mph WNW2.6 kmh WNW 4.7 mph7.6 kmh 30.09 in1019.0 mb 0.00 in0.0 mm 0.00 in0.0 mm 0.00 in0.0 mm
07:33 AM 31.6°F-0.2°C 30.2°F-1.0°C 94% 1.3 mph NE2.1 kmh NE 2.7 mph4.3 kmh 30.09 in1019.0 mb 0.00 in0.0 mm 0.00 in0.0 mm 0.00 in0.0 mm
07:28 AM 31.6°F-0.2°C 30.2°F-1.0°C 94% 1.6 mph NNW2.6 kmh NNW 2.7 mph4.3 kmh 30.09 in1019.0 mb 0.00 in0.0 mm 0.00 in0.0 mm 0.00 in0.0 mm
07:23 AM 31.6°F-0.2°C 30.2°F-1.0°C 94% 1.1 mph N1.8 kmh N 2.7 mph4.3 kmh 30.09 in1019.0 mb 0.00 in0.0 mm 0.00 in0.0 mm 0.00 in0.0 mm
07:18 AM 31.6°F-0.2°C 30.2°F-1.0°C 94% 2.2 mph N3.5 kmh N 4.9 mph7.9 kmh 30.08 in1018.6 mb 0.00 in0.0 mm 0.00 in0.0 mm 0.00 in0.0 mm
07:13 AM 31.6°F-0.2°C 30.2°F-1.0°C 94% 3.1 mph N5.0 kmh N 4.9 mph7.9 kmh 30.08 in1018.6 mb 0.00 in0.0 mm 0.00 in0.0 mm 0.00 in0.0 mm
07:08 AM 31.6°F-0.2°C 30.2°F-1.0°C 94% 1.3 mph NNW2.1 kmh NNW 2.7 mph4.3 kmh 30.08 in1018.6 mb 0.00 in0.0 mm 0.00 in0.0 mm 0.00 in0.0 mm
07:03 AM 31.6°F-0.2°C 30.2°F-1.0°C 94% 1.1 mph N1.8 kmh N 3.1 mph5.0 kmh 30.07 in1018.3 mb 0.00 in0.0 mm 0.00 in0.0 mm 0.00 in0.0 mm
06:58 AM 31.6°F-0.2°C 30.2°F-1.0°C 94% 1.1 mph NNW1.8 kmh NNW 2.2 mph3.5 kmh 30.07 in1018.3 mb 0.00 in0.0 mm 0.00 in0.0 mm 0.00 in0.0 mm
06:53 AM 31.5°F-0.3°C 30.0°F-1.1°C 94% 2.2 mph N3.5 kmh N 3.6 mph5.8 kmh 30.07 in1018.3 mb 0.00 in0.0 mm 0.00 in0.0 mm 0.00 in0.0 mm
06:48 AM 31.6°F-0.2°C 30.2°F-1.0°C 94% 2.7 mph N4.3 kmh N 3.8 mph6.1 kmh 30.06 in1017.9 mb 0.00 in0.0 mm 0.00 in0.0 mm 0.00 in0.0 mm
06:43 AM 31.6°F-0.2°C 30.2°F-1.0°C 94% 2.7 mph WSW4.3 kmh WSW 6.7 mph10.8 kmh 30.06 in1017.9 mb 0.00 in0.0 mm 0.00 in0.0 mm 0.00 in0.0 mm
06:38 AM 31.6°F-0.2°C 30.2°F-1.0°C 94% 1.8 mph WNW2.9 kmh WNW 3.6 mph5.8 kmh 30.06 in1017.9 mb 0.00 in0.0 mm 0.00 in0.0 mm 0.00 in0.0 mm
06:33 AM 31.6°F-0.2°C 30.2°F-1.0°C 94% 2.5 mph N4.0 kmh N 4.7 mph7.6 kmh 30.06 in1017.9 mb 0.00 in0.0 mm 0.00 in0.0 mm 0.00 in0.0 mm
06:28 AM 31.8°F-0.1°C 30.4°F-0.9°C 94% 1.3 mph NNE2.1 kmh NNE 3.8 mph6.1 kmh 30.06 in1017.9 mb 0.00 in0.0 mm 0.00 in0.0 mm 0.00 in0.0 mm
06:23 AM 31.6°F-0.2°C 30.2°F-1.0°C 94% 2.0 mph N3.2 kmh N 2.9 mph4.7 kmh 30.05 in1017.6 mb 0.00 in0.0 mm 0.00 in0.0 mm 0.00 in0.0 mm
06:18 AM 31.6°F-0.2°C 30.2°F-1.0°C 94% 2.5 mph N4.0 kmh N 3.6 mph5.8 kmh 30.06 in1017.9 mb 0.00 in0.0 mm 0.00 in0.0 mm 0.00 in0.0 mm
06:13 AM 31.8°F-0.1°C 30.4°F-0.9°C 94% 3.1 mph N5.0 kmh N 4.7 mph7.6 kmh 30.05 in1017.6 mb 0.00 in0.0 mm 0.00 in0.0 mm 0.00 in0.0 mm
06:08 AM 31.8°F-0.1°C 30.4°F-0.9°C 94% 2.0 mph N3.2 kmh N 4.0 mph6.4 kmh 30.05 in1017.6 mb 0.00 in0.0 mm 0.00 in0.0 mm 0.00 in0.0 mm
06:03 AM 31.8°F-0.1°C 30.4°F-0.9°C 94% 2.9 mph N4.7 kmh N 5.1 mph8.2 kmh 30.05 in1017.6 mb 0.00 in0.0 mm 0.00 in0.0 mm 0.00 in0.0 mm
05:58 AM 31.8°F-0.1°C 30.4°F-0.9°C 94% 0.9 mph N1.4 kmh N 2.5 mph4.0 kmh 30.05 in1017.6 mb 0.00 in0.0 mm 0.00 in0.0 mm 0.00 in0.0 mm
05:53 AM 32.0°F0.0°C 30.4°F-0.9°C 94% 2.5 mph N4.0 kmh N 4.7 mph7.6 kmh 30.04 in1017.3 mb 0.00 in0.0 mm 0.00 in0.0 mm 0.00 in0.0 mm
05:48 AM 32.0°F0.0°C 30.4°F-0.9°C 94% 2.7 mph NW4.3 kmh NW 4.7 mph7.6 kmh 30.04 in1017.3 mb 0.00 in0.0 mm 0.00 in0.0 mm 0.00 in0.0 mm
05:43 AM 32.0°F0.0°C 30.4°F-0.9°C 94% 2.2 mph N3.5 kmh N 4.0 mph6.4 kmh 30.04 in1017.3 mb 0.00 in0.0 mm 0.00 in0.0 mm 0.00 in0.0 mm
05:38 AM 32.2°F0.1°C 30.6°F-0.8°C 94% 2.2 mph N3.5 kmh N 4.0 mph6.4 kmh 30.04 in1017.3 mb 0.00 in0.0 mm 0.00 in0.0 mm 0.00 in0.0 mm
05:33 AM 32.2°F0.1°C 30.6°F-0.8°C 94% 1.3 mph N2.1 kmh N 3.4 mph5.5 kmh 30.04 in1017.3 mb 0.00 in0.0 mm 0.00 in0.0 mm 0.00 in0.0 mm
05:28 AM 32.2°F0.1°C 30.6°F-0.8°C 94% 1.8 mph NE2.9 kmh NE 2.9 mph4.7 kmh 30.03 in1016.9 mb 0.00 in0.0 mm 0.00 in0.0 mm 0.00 in0.0 mm
05:23 AM 32.2°F0.1°C 30.6°F-0.8°C 94% 3.4 mph N5.5 kmh N 5.4 mph8.7 kmh 30.03 in1016.9 mb 0.00 in0.0 mm 0.00 in0.0 mm 0.00 in0.0 mm
05:18 AM 32.2°F0.1°C 30.6°F-0.8°C 94% 1.1 mph NNE1.8 kmh NNE 2.5 mph4.0 kmh 30.03 in1016.9 mb 0.00 in0.0 mm 0.00 in0.0 mm 0.00 in0.0 mm
05:14 AM 32.4°F0.2°C 30.7°F-0.7°C 94% 2.9 mph N4.7 kmh N 4.5 mph7.2 kmh 30.04 in1017.3 mb 0.00 in0.0 mm 0.00 in0.0 mm 0.00 in0.0 mm
05:09 AM 32.4°F0.2°C 31.1°F-0.5°C 95% 4.3 mph N6.9 kmh N 6.5 mph10.5 kmh 30.03 in1016.9 mb 0.00 in0.0 mm 0.00 in0.0 mm 0.00 in0.0 mm
05:04 AM 32.5°F0.3°C 31.3°F-0.4°C 95% 4.0 mph WNW6.4 kmh WNW 8.1 mph13.0 kmh 30.03 in1016.9 mb 0.00 in0.0 mm 0.00 in0.0 mm 0.00 in0.0 mm
04:59 AM 32.5°F0.3°C 30.9°F-0.6°C 94% 2.7 mph 4.3 kmh 5.6 mph9.0 kmh 30.03 in1016.9 mb 0.00 in0.0 mm 0.00 in0.0 mm 0.00 in0.0 mm
04:54 AM 32.7°F0.4°C 31.5°F-0.3°C 95% 1.8 mph N2.9 kmh N 4.3 mph6.9 kmh 30.03 in1016.9 mb 0.00 in0.0 mm 0.00 in0.0 mm 0.00 in0.0 mm
04:49 AM 32.7°F0.4°C 31.5°F-0.3°C 95% 2.5 mph 4.0 kmh 5.6 mph9.0 kmh 30.03 in1016.9 mb 0.00 in0.0 mm 0.00 in0.0 mm 0.00 in0.0 mm
04:44 AM 32.7°F0.4°C 31.5°F-0.3°C 95% 1.3 mph NNW2.1 kmh NNW 3.4 mph5.5 kmh 30.02 in1016.6 mb 0.00 in0.0 mm 0.00 in0.0 mm 0.00 in0.0 mm
04:39 AM 32.7°F0.4°C 31.5°F-0.3°C 95% 2.2 mph NNW3.5 kmh NNW 6.3 mph10.1 kmh 30.02 in1016.6 mb 0.00 in0.0 mm 0.00 in0.0 mm 0.00 in0.0 mm
04:33 AM 32.7°F0.4°C 31.5°F-0.3°C 95% 1.3 mph NW2.1 kmh NW 2.9 mph4.7 kmh 30.02 in1016.6 mb 0.00 in0.0 mm 0.00 in0.0 mm 0.00 in0.0 mm
04:28 AM 32.7°F0.4°C 31.5°F-0.3°C 95% 2.2 mph N3.5 kmh N 4.3 mph6.9 kmh 30.02 in1016.6 mb 0.00 in0.0 mm 0.00 in0.0 mm 0.00 in0.0 mm
04:23 AM 32.9°F0.5°C 31.6°F-0.2°C 95% 2.5 mph N4.0 kmh N 3.8 mph6.1 kmh 30.01 in1016.3 mb 0.00 in0.0 mm 0.00 in0.0 mm 0.00 in0.0 mm
04:18 AM 32.9°F0.5°C 31.6°F-0.2°C 95% 1.3 mph NNW2.1 kmh NNW 2.7 mph4.3 kmh 30.01 in1016.3 mb 0.00 in0.0 mm 0.00 in0.0 mm 0.00 in0.0 mm
04:13 AM 32.9°F0.5°C 31.6°F-0.2°C 95% 2.0 mph N3.2 kmh N 2.9 mph4.7 kmh 30.01 in1016.3 mb 0.00 in0.0 mm 0.00 in0.0 mm 0.00 in0.0 mm
04:08 AM 32.9°F0.5°C 31.6°F-0.2°C 95% 2.0 mph NW3.2 kmh NW 4.7 mph7.6 kmh 30.01 in1016.3 mb 0.00 in0.0 mm 0.00 in0.0 mm 0.00 in0.0 mm
04:03 AM 33.1°F0.6°C 31.8°F-0.1°C 95% 2.0 mph NNW3.2 kmh NNW 4.7 mph7.6 kmh 30.01 in1016.3 mb 0.00 in0.0 mm 0.00 in0.0 mm 0.00 in0.0 mm
03:58 AM 33.3°F0.7°C 32.0°F0.0°C 95% 2.0 mph NW3.2 kmh NW 4.9 mph7.9 kmh 30.01 in1016.3 mb 0.00 in0.0 mm 0.00 in0.0 mm 0.00 in0.0 mm
03:53 AM 33.3°F0.7°C 32.0°F0.0°C 95% 1.3 mph WSW2.1 kmh WSW 3.6 mph5.8 kmh 30.01 in1016.3 mb 0.00 in0.0 mm 0.00 in0.0 mm 0.00 in0.0 mm
03:48 AM 33.3°F0.7°C 32.0°F0.0°C 95% 0.7 mph NNW1.1 kmh NNW 2.0 mph3.2 kmh 30.01 in1016.3 mb 0.00 in0.0 mm 0.00 in0.0 mm 0.00 in0.0 mm
03:43 AM 33.3°F0.7°C 31.6°F-0.2°C 94% 0.9 mph NW1.4 kmh NW 2.5 mph4.0 kmh 30.01 in1016.3 mb 0.00 in0.0 mm 0.00 in0.0 mm 0.00 in0.0 mm
03:38 AM 33.3°F0.7°C 31.6°F-0.2°C 94% 0.4 mph WNW0.6 kmh WNW 1.3 mph2.1 kmh 30.01 in1016.3 mb 0.00 in0.0 mm 0.00 in0.0 mm 0.00 in0.0 mm
03:33 AM 33.3°F0.7°C 31.6°F-0.2°C 94% 3.6 mph SW5.8 kmh SW 8.7 mph14.0 kmh 30.01 in1016.3 mb 0.00 in0.0 mm 0.00 in0.0 mm 0.00 in0.0 mm
03:28 AM 33.3°F0.7°C 31.6°F-0.2°C 94% 2.2 mph NW3.5 kmh NW 9.2 mph14.8 kmh 30.02 in1016.6 mb 0.00 in0.0 mm 0.00 in0.0 mm 0.00 in0.0 mm
03:24 AM 33.4°F0.8°C 31.8°F-0.1°C 94% 1.8 mph WNW2.9 kmh WNW 6.0 mph9.7 kmh 30.02 in1016.6 mb 0.00 in0.0 mm 0.00 in0.0 mm 0.00 in0.0 mm
03:19 AM 33.4°F0.8°C 31.8°F-0.1°C 94% 1.6 mph NW2.6 kmh NW 2.7 mph4.3 kmh 30.01 in1016.3 mb 0.00 in0.0 mm 0.00 in0.0 mm 0.00 in0.0 mm
03:14 AM 33.4°F0.8°C 31.8°F-0.1°C 94% 2.5 mph W4.0 kmh W 4.9 mph7.9 kmh 30.01 in1016.3 mb 0.00 in0.0 mm 0.00 in0.0 mm 0.00 in0.0 mm
03:09 AM 33.3°F0.7°C 31.6°F-0.2°C 94% 0.4 mph N0.6 kmh N 1.3 mph2.1 kmh 30.01 in1016.3 mb 0.00 in0.0 mm 0.00 in0.0 mm 0.00 in0.0 mm
03:04 AM 33.3°F0.7°C 31.6°F-0.2°C 94% 1.3 mph SSW2.1 kmh SSW 4.7 mph7.6 kmh 30.01 in1016.3 mb 0.00 in0.0 mm 0.00 in0.0 mm 0.00 in0.0 mm
02:59 AM 33.4°F0.8°C 31.8°F-0.1°C 94% 0.9 mph N1.4 kmh N 2.2 mph3.5 kmh 30.01 in1016.3 mb 0.00 in0.0 mm 0.00 in0.0 mm 0.00 in0.0 mm
02:54 AM 33.3°F0.7°C 31.6°F-0.2°C 94% 1.1 mph NW1.8 kmh NW 2.2 mph3.5 kmh 30.01 in1016.3 mb 0.00 in0.0 mm 0.00 in0.0 mm 0.00 in0.0 mm
02:49 AM 33.3°F0.7°C 32.0°F0.0°C 95% 0.7 mph N1.1 kmh N 1.8 mph2.9 kmh 30.01 in1016.3 mb 0.00 in0.0 mm 0.00 in0.0 mm 0.00 in0.0 mm
02:44 AM 33.3°F0.7°C 32.0°F0.0°C 95% 0.9 mph SW1.4 kmh SW 2.2 mph3.5 kmh 30.01 in1016.3 mb 0.00 in0.0 mm 0.00 in0.0 mm 0.00 in0.0 mm
02:39 AM 33.3°F0.7°C 32.0°F0.0°C 95% 1.1 mph S1.8 kmh S 2.2 mph3.5 kmh 30.01 in1016.3 mb 0.00 in0.0 mm 0.00 in0.0 mm 0.00 in0.0 mm
02:34 AM 33.3°F0.7°C 32.0°F0.0°C 95% 2.9 mph NW4.7 kmh NW 8.7 mph14.0 kmh 30.01 in1016.3 mb 0.00 in0.0 mm 0.00 in0.0 mm 0.00 in0.0 mm
02:29 AM 33.3°F0.7°C 31.6°F-0.2°C 94% 0.4 mph SE0.6 kmh SE 1.6 mph2.6 kmh 30.01 in1016.3 mb 0.00 in0.0 mm 0.00 in0.0 mm 0.00 in0.0 mm
02:24 AM 33.3°F0.7°C 32.0°F0.0°C 95% 1.3 mph NNE2.1 kmh NNE 2.7 mph4.3 kmh 30.00 in1015.9 mb 0.00 in0.0 mm 0.00 in0.0 mm 0.00 in0.0 mm
02:19 AM 33.1°F0.6°C 31.8°F-0.1°C 95% 1.1 mph SE1.8 kmh SE 1.8 mph2.9 kmh 30.00 in1015.9 mb 0.00 in0.0 mm 0.00 in0.0 mm 0.00 in0.0 mm
02:14 AM 33.1°F0.6°C 31.8°F-0.1°C 95% 1.1 mph S1.8 kmh S 2.7 mph4.3 kmh 30.00 in1015.9 mb 0.00 in0.0 mm 0.00 in0.0 mm 0.00 in0.0 mm
02:09 AM 33.1°F0.6°C 31.5°F-0.3°C 94% 1.6 mph SSW2.6 kmh SSW 2.7 mph4.3 kmh 30.00 in1015.9 mb 0.00 in0.0 mm 0.00 in0.0 mm 0.00 in0.0 mm
02:04 AM 33.1°F0.6°C 31.5°F-0.3°C 94% 1.6 mph SSW2.6 kmh SSW 2.2 mph3.5 kmh 30.00 in1015.9 mb 0.00 in0.0 mm 0.00 in0.0 mm 0.00 in0.0 mm
01:59 AM 33.1°F0.6°C 31.5°F-0.3°C 94% 1.6 mph S2.6 kmh S 2.7 mph4.3 kmh 29.99 in1015.6 mb 0.00 in0.0 mm 0.00 in0.0 mm 0.00 in0.0 mm
01:54 AM 32.9°F0.5°C 31.3°F-0.4°C 94% 0.7 mph SW1.1 kmh SW 2.5 mph4.0 kmh 29.99 in1015.6 mb 0.00 in0.0 mm 0.00 in0.0 mm 0.00 in0.0 mm
01:49 AM 32.9°F0.5°C 31.3°F-0.4°C 94% 1.6 mph SSW2.6 kmh SSW 2.7 mph4.3 kmh 29.99 in1015.6 mb 0.00 in0.0 mm 0.00 in0.0 mm 0.00 in0.0 mm
01:44 AM 32.9°F0.5°C 31.3°F-0.4°C 94% 1.1 mph S1.8 kmh S 2.2 mph3.5 kmh 29.99 in1015.6 mb 0.00 in0.0 mm 0.00 in0.0 mm 0.00 in0.0 mm
01:39 AM 32.9°F0.5°C 31.3°F-0.4°C 94% 0.7 mph SSW1.1 kmh SSW 1.8 mph2.9 kmh 29.99 in1015.6 mb 0.00 in0.0 mm 0.00 in0.0 mm 0.00 in0.0 mm
01:34 AM 32.9°F0.5°C 31.3°F-0.4°C 94% 0.7 mph SSE1.1 kmh SSE 2.0 mph3.2 kmh 29.99 in1015.6 mb 0.00 in0.0 mm 0.00 in0.0 mm 0.00 in0.0 mm
01:29 AM 32.7°F0.4°C 31.1°F-0.5°C 94% 2.2 mph S3.5 kmh S 4.7 mph7.6 kmh 29.99 in1015.6 mb 0.00 in0.0 mm 0.00 in0.0 mm 0.00 in0.0 mm
01:24 AM 32.7°F0.4°C 31.1°F-0.5°C 94% 0.9 mph SE1.4 kmh SE 4.0 mph6.4 kmh 29.99 in1015.6 mb 0.00 in0.0 mm 0.00 in0.0 mm 0.00 in0.0 mm
01:19 AM 32.7°F0.4°C 31.1°F-0.5°C 94% 1.1 mph SE1.8 kmh SE 1.6 mph2.6 kmh 29.98 in1015.2 mb 0.00 in0.0 mm 0.00 in0.0 mm 0.00 in0.0 mm
01:14 AM 32.7°F0.4°C 31.1°F-0.5°C 94% 1.6 mph SSE2.6 kmh SSE 2.5 mph4.0 kmh 29.99 in1015.6 mb 0.00 in0.0 mm 0.00 in0.0 mm 0.00 in0.0 mm
01:09 AM 32.7°F0.4°C 31.1°F-0.5°C 94% 2.7 mph SSW4.3 kmh SSW 3.6 mph5.8 kmh 29.98 in1015.2 mb 0.00 in0.0 mm 0.00 in0.0 mm 0.00 in0.0 mm
01:04 AM 32.7°F0.4°C 31.1°F-0.5°C 94% 2.0 mph SSW3.2 kmh SSW 3.1 mph5.0 kmh 29.99 in1015.6 mb 0.00 in0.0 mm 0.00 in0.0 mm 0.00 in0.0 mm
12:59 AM 32.5°F0.3°C 30.9°F-0.6°C 94% 2.0 mph SE3.2 kmh SE 2.9 mph4.7 kmh 29.98 in1015.2 mb 0.00 in0.0 mm 0.00 in0.0 mm 0.00 in0.0 mm
12:54 AM 32.5°F0.3°C 30.9°F-0.6°C 94% 1.3 mph SSE2.1 kmh SSE 2.7 mph4.3 kmh 29.99 in1015.6 mb 0.00 in0.0 mm 0.00 in0.0 mm 0.00 in0.0 mm
12:49 AM 32.5°F0.3°C 30.9°F-0.6°C 94% 1.1 mph SE1.8 kmh SE 1.8 mph2.9 kmh 29.99 in1015.6 mb 0.00 in0.0 mm 0.00 in0.0 mm 0.00 in0.0 mm
12:44 AM 32.4°F0.2°C 30.7°F-0.7°C 94% 0.9 mph SSW1.4 kmh SSW 2.0 mph3.2 kmh 29.99 in1015.6 mb 0.00 in0.0 mm 0.00 in0.0 mm 0.00 in0.0 mm
12:39 AM 32.4°F0.2°C 30.7°F-0.7°C 94% 1.1 mph SSW1.8 kmh SSW 2.0 mph3.2 kmh 30.00 in1015.9 mb 0.00 in0.0 mm 0.00 in0.0 mm 0.00 in0.0 mm
12:34 AM 32.2°F0.1°C 30.9°F-0.6°C 95% 1.6 mph SE2.6 kmh SE 5.4 mph8.7 kmh 30.00 in1015.9 mb 0.00 in0.0 mm 0.00 in0.0 mm 0.00 in0.0 mm
12:29 AM 32.2°F0.1°C 30.9°F-0.6°C 95% 1.8 mph SSE2.9 kmh SSE 2.7 mph4.3 kmh 30.00 in1015.9 mb 0.00 in0.0 mm 0.00 in0.0 mm 0.00 in0.0 mm
12:24 AM 32.2°F0.1°C 30.9°F-0.6°C 95% 1.3 mph SSE2.1 kmh SSE 5.4 mph8.7 kmh 30.01 in1016.3 mb 0.00 in0.0 mm 0.00 in0.0 mm 0.00 in0.0 mm
12:19 AM 32.0°F0.0°C 30.4°F-0.9°C 94% 1.6 mph SE2.6 kmh SE 2.7 mph4.3 kmh 30.01 in1016.3 mb 0.00 in0.0 mm 0.00 in0.0 mm 0.00 in0.0 mm
12:14 AM 32.0°F0.0°C 30.4°F-0.9°C 94% 2.0 mph S3.2 kmh S 3.1 mph5.0 kmh 30.01 in1016.3 mb 0.00 in0.0 mm 0.00 in0.0 mm 0.00 in0.0 mm
12:09 AM 31.8°F-0.1°C 30.4°F-0.9°C 94% 1.6 mph SE2.6 kmh SE 1.8 mph2.9 kmh 30.01 in1016.3 mb 0.00 in0.0 mm 0.00 in0.0 mm 0.00 in0.0 mm
12:04 AM 31.8°F-0.1°C 30.4°F-0.9°C 94% 1.8 mph SSE2.9 kmh SSE 2.9 mph4.7 kmh 30.01 in1016.3 mb 0.00 in0.0 mm 0.00 in0.0 mm 0.00 in0.0 mm